createdAt,value
2018-07-06T00:00:15.985Z,99.99
2018-07-06T00:01:16.030Z,99.99
2018-07-06T00:02:15.991Z,99.99
2018-07-06T00:03:15.973Z,99.99
2018-07-06T00:04:16.021Z,99.99
2018-07-06T00:05:16.010Z,99.99
2018-07-06T00:06:15.967Z,99.99
2018-07-06T00:07:15.963Z,99.99
2018-07-06T00:08:15.976Z,99.99
2018-07-06T00:09:15.955Z,99.99
2018-07-06T00:10:15.951Z,99.99
2018-07-06T00:11:15.988Z,99.99
2018-07-06T00:12:16.004Z,99.99
2018-07-06T00:13:15.944Z,99.99
2018-07-06T00:14:15.993Z,99.99
2018-07-06T00:15:15.983Z,99.99
2018-07-06T00:16:15.931Z,99.99
2018-07-06T00:17:15.932Z,99.99
2018-07-06T00:18:15.936Z,99.99
2018-07-06T00:19:15.929Z,99.99
2018-07-06T00:20:15.923Z,99.99
2018-07-06T00:21:15.971Z,99.99
2018-07-06T00:22:15.925Z,99.99
2018-07-06T00:23:15.918Z,99.99
2018-07-06T00:24:15.959Z,99.99
2018-07-06T00:25:15.947Z,99.99
2018-07-06T00:26:15.899Z,99.99
2018-07-06T00:27:15.897Z,99.99
2018-07-06T00:28:15.909Z,99.99
2018-07-06T00:29:15.889Z,99.99
2018-07-06T00:30:15.887Z,99.99
2018-07-06T00:31:15.924Z,99.99
2018-07-06T00:32:15.892Z,99.99
2018-07-06T00:33:15.877Z,99.99
2018-07-06T00:34:15.924Z,99.99
2018-07-06T00:35:15.914Z,99.99
2018-07-06T00:36:15.875Z,99.99
2018-07-06T00:37:15.864Z,99.99
2018-07-06T00:38:15.882Z,99.99
2018-07-06T00:39:15.860Z,99.99
2018-07-06T00:40:15.861Z,99.99
2018-07-06T00:41:15.899Z,99.99
2018-07-06T00:42:15.860Z,99.99
2018-07-06T00:43:15.861Z,99.99
2018-07-06T00:44:15.892Z,99.99
2018-07-06T00:45:15.882Z,99.99
2018-07-06T00:46:15.838Z,99.99
2018-07-06T00:47:15.840Z,99.99
2018-07-06T00:48:15.829Z,99.99
2018-07-06T00:49:15.825Z,99.99
2018-07-06T00:50:15.841Z,99.99
2018-07-06T00:51:15.869Z,99.99
2018-07-06T00:52:15.815Z,99.99
2018-07-06T00:53:15.818Z,99.99
2018-07-06T00:54:15.862Z,99.99
2018-07-06T00:55:15.806Z,99.99
2018-07-06T00:56:15.804Z,99.99
2018-07-06T00:57:15.800Z,99.99
2018-07-06T00:58:15.797Z,99.99
2018-07-06T00:59:15.793Z,99.99
2018-07-06T01:00:15.793Z,99.99
2018-07-06T01:01:15.835Z,99.99
2018-07-06T01:02:15.785Z,99.99
2018-07-06T01:03:15.783Z,99.99
2018-07-06T01:04:15.829Z,99.99
2018-07-06T01:05:15.777Z,99.99
2018-07-06T01:06:15.770Z,99.99
2018-07-06T01:07:15.778Z,99.99
2018-07-06T01:08:15.769Z,99.99
2018-07-06T01:09:15.764Z,99.99
2018-07-06T01:10:15.797Z,99.99
2018-07-06T01:11:15.757Z,99.99
2018-07-06T01:12:15.759Z,99.99
2018-07-06T01:13:15.749Z,99.99
2018-07-06T01:14:15.747Z,99.99
2018-07-06T01:15:15.756Z,99.99
2018-07-06T01:16:15.746Z,99.99
2018-07-06T01:17:15.744Z,99.99
2018-07-06T01:18:15.733Z,99.99
2018-07-06T01:19:15.739Z,99.99
2018-07-06T01:20:15.733Z,99.99
2018-07-06T01:21:15.734Z,99.99
2018-07-06T01:22:15.731Z,99.99
2018-07-06T01:23:15.716Z,99.99
2018-07-06T01:24:15.761Z,99.99
2018-07-06T01:25:15.724Z,99.99
2018-07-06T01:26:15.709Z,99.99
2018-07-06T01:27:15.709Z,99.99
2018-07-06T01:28:15.714Z,99.99
2018-07-06T01:29:15.695Z,99.99
2018-07-06T01:30:15.702Z,99.99
2018-07-06T01:31:15.694Z,99.99
2018-07-06T01:32:15.688Z,99.99
2018-07-06T01:33:15.687Z,99.99
2018-07-06T01:34:15.730Z,99.99
2018-07-06T01:35:15.677Z,99.99
2018-07-06T01:36:15.682Z,99.99
2018-07-06T01:37:15.667Z,99.99
2018-07-06T01:38:15.665Z,99.99
2018-07-06T01:39:15.673Z,99.99
2018-07-06T01:40:15.659Z,99.99
2018-07-06T01:41:15.655Z,99.99
2018-07-06T01:42:15.653Z,99.99
2018-07-06T01:43:15.661Z,99.99
2018-07-06T01:44:15.699Z,99.99
2018-07-06T01:45:15.652Z,99.99
2018-07-06T01:46:15.638Z,99.99
2018-07-06T01:47:15.644Z,99.99
2018-07-06T01:48:15.632Z,99.99
2018-07-06T01:49:15.637Z,99.99
2018-07-06T01:50:15.627Z,99.99
2018-07-06T01:51:15.629Z,99.99
2018-07-06T01:52:15.630Z,99.99
2018-07-06T01:53:15.626Z,99.99
2018-07-06T01:54:15.612Z,99.99
2018-07-06T01:55:15.611Z,99.99
2018-07-06T01:56:15.606Z,99.99
2018-07-06T01:57:15.611Z,99.99
2018-07-06T01:58:15.600Z,99.99
2018-07-06T01:59:15.597Z,99.99
2018-07-06T02:00:15.592Z,99.99
2018-07-06T02:01:15.590Z,99.99
2018-07-06T02:02:15.593Z,99.99
2018-07-06T02:03:15.584Z,99.99
2018-07-06T02:04:15.585Z,99.99
2018-07-06T02:05:15.619Z,99.99
2018-07-06T02:06:15.572Z,99.99
2018-07-06T02:07:15.575Z,99.99
2018-07-06T02:08:15.567Z,99.99
2018-07-06T02:09:15.564Z,99.99
2018-07-06T02:10:15.561Z,99.99
2018-07-06T02:11:15.567Z,99.99
2018-07-06T02:12:15.567Z,99.99
2018-07-06T02:13:15.549Z,99.99
2018-07-06T02:14:15.553Z,99.99
2018-07-06T02:15:15.546Z,99.99
2018-07-06T02:16:15.541Z,99.99
2018-07-06T02:17:15.547Z,99.99
2018-07-06T02:18:15.552Z,99.99
2018-07-06T02:19:15.530Z,99.99
2018-07-06T02:20:15.526Z,99.99
2018-07-06T02:21:15.551Z,99.99
2018-07-06T02:22:15.530Z,99.99
2018-07-06T02:23:15.519Z,99.99
2018-07-06T02:24:15.514Z,99.99
2018-07-06T02:25:15.511Z,99.99
2018-07-06T02:26:15.511Z,99.99
2018-07-06T02:27:15.512Z,99.99
2018-07-06T02:28:15.520Z,99.99
2018-07-06T02:29:15.507Z,99.99
2018-07-06T02:30:15.508Z,99.99
2018-07-06T02:31:15.523Z,99.99
2018-07-06T02:32:15.508Z,99.99
2018-07-06T02:33:15.485Z,99.99
2018-07-06T02:34:15.482Z,99.99
2018-07-06T02:35:15.489Z,99.99
2018-07-06T02:36:15.480Z,99.99
2018-07-06T02:37:15.474Z,99.99
2018-07-06T02:38:15.487Z,99.99
2018-07-06T02:39:15.475Z,99.99
2018-07-06T02:40:15.469Z,99.99
2018-07-06T02:41:15.487Z,99.99
2018-07-06T02:42:15.462Z,99.99
2018-07-06T02:43:15.453Z,99.99
2018-07-06T02:44:15.459Z,99.99
2018-07-06T02:45:15.451Z,99.99
2018-07-06T02:46:15.448Z,99.99
2018-07-06T02:47:15.449Z,99.99
2018-07-06T02:48:15.456Z,99.99
2018-07-06T02:49:15.434Z,99.99
2018-07-06T02:50:15.437Z,99.99
2018-07-06T02:51:15.453Z,99.99
2018-07-06T02:52:15.443Z,99.99
2018-07-06T02:53:15.426Z,99.99
2018-07-06T02:54:15.417Z,99.99
2018-07-06T02:55:15.458Z,99.99
2018-07-06T02:56:15.411Z,99.99
2018-07-06T02:57:15.407Z,99.99
2018-07-06T02:58:15.421Z,99.99
2018-07-06T02:59:15.409Z,99.99
2018-07-06T03:00:15.399Z,99.99
2018-07-06T03:01:15.423Z,99.99
2018-07-06T03:02:15.393Z,99.99
2018-07-06T03:03:15.402Z,99.99
2018-07-06T03:04:15.384Z,99.99
2018-07-06T03:05:15.382Z,99.99
2018-07-06T03:06:15.378Z,99.99
2018-07-06T03:07:15.377Z,99.99
2018-07-06T03:08:15.391Z,99.99
2018-07-06T03:09:15.380Z,99.99
2018-07-06T03:10:15.367Z,99.99
2018-07-06T03:11:15.390Z,99.99
2018-07-06T03:12:15.360Z,99.99
2018-07-06T03:13:15.368Z,99.99
2018-07-06T03:14:15.357Z,99.99
2018-07-06T03:15:15.352Z,99.99
2018-07-06T03:16:15.345Z,99.99
2018-07-06T03:17:15.342Z,99.99
2018-07-06T03:18:15.339Z,99.99
2018-07-06T03:19:15.343Z,99.99
2018-07-06T03:20:15.334Z,99.99
2018-07-06T03:21:15.356Z,99.99
2018-07-06T03:22:15.331Z,99.99
2018-07-06T03:23:15.322Z,99.99
2018-07-06T03:24:15.324Z,99.99
2018-07-06T03:25:15.321Z,99.99
2018-07-06T03:26:15.314Z,99.99
2018-07-06T03:27:15.309Z,99.99
2018-07-06T03:28:15.343Z,99.99
2018-07-06T03:29:15.306Z,99.99
2018-07-06T03:30:15.309Z,99.99
2018-07-06T03:31:15.325Z,99.99
2018-07-06T03:32:15.295Z,99.99
2018-07-06T03:33:15.290Z,99.99
2018-07-06T03:34:15.286Z,99.99
2018-07-06T03:35:15.289Z,99.99
2018-07-06T03:36:15.289Z,99.99
2018-07-06T03:37:15.280Z,99.99
2018-07-06T03:38:15.307Z,99.99
2018-07-06T03:39:15.285Z,99.99
2018-07-06T03:40:15.268Z,99.99
2018-07-06T03:41:15.292Z,99.99
2018-07-06T03:42:15.265Z,99.99
2018-07-06T03:43:15.258Z,99.99
2018-07-06T03:44:15.254Z,99.99
2018-07-06T03:45:15.251Z,99.99
2018-07-06T03:46:15.248Z,99.99
2018-07-06T03:47:15.253Z,99.99
2018-07-06T03:48:15.261Z,99.99
2018-07-06T03:49:15.238Z,99.99
2018-07-06T03:50:15.234Z,99.99
2018-07-06T03:51:15.261Z,99.99
2018-07-06T03:52:15.237Z,99.99
2018-07-06T03:53:15.225Z,99.99
2018-07-06T03:54:15.224Z,99.99
2018-07-06T03:55:15.219Z,99.99
2018-07-06T03:56:15.216Z,99.99
2018-07-06T03:57:15.213Z,99.99
2018-07-06T03:58:15.212Z,99.99
2018-07-06T03:59:15.209Z,99.99
2018-07-06T04:00:15.203Z,99.99
2018-07-06T04:01:15.202Z,99.99
2018-07-06T04:02:15.202Z,99.99
2018-07-06T04:03:15.196Z,99.99
2018-07-06T04:04:15.192Z,99.99
2018-07-06T04:05:15.190Z,99.99
2018-07-06T04:06:15.182Z,99.99
2018-07-06T04:07:15.191Z,99.99
2018-07-06T04:08:15.175Z,99.99
2018-07-06T04:09:15.185Z,99.99
2018-07-06T04:10:15.177Z,99.99
2018-07-06T04:11:15.193Z,99.99
2018-07-06T04:12:15.183Z,99.99
2018-07-06T04:13:15.161Z,99.99
2018-07-06T04:14:15.155Z,99.99
2018-07-06T04:15:15.157Z,99.99
2018-07-06T04:16:15.157Z,99.99
2018-07-06T04:17:15.145Z,99.99
2018-07-06T04:18:15.149Z,99.99
2018-07-06T04:19:15.141Z,99.99
2018-07-06T04:20:15.142Z,99.99
2018-07-06T04:21:15.133Z,99.99
2018-07-06T04:22:15.132Z,99.99
2018-07-06T04:23:15.130Z,99.99
2018-07-06T04:24:15.132Z,99.99
2018-07-06T04:25:15.127Z,99.99
2018-07-06T04:26:15.120Z,99.99
2018-07-06T04:27:15.114Z,99.99
2018-07-06T04:28:15.114Z,99.99
2018-07-06T04:29:15.108Z,99.99
2018-07-06T04:30:15.105Z,99.99
2018-07-06T04:31:15.099Z,99.99
2018-07-06T04:32:15.095Z,99.99
2018-07-06T04:33:15.096Z,99.99
2018-07-06T04:34:15.092Z,99.99
2018-07-06T04:35:15.093Z,99.99
2018-07-06T04:36:15.090Z,99.99
2018-07-06T04:37:15.081Z,99.99
2018-07-06T04:38:15.077Z,99.99
2018-07-06T04:39:15.074Z,99.99
2018-07-06T04:40:15.073Z,99.99
2018-07-06T04:41:15.072Z,99.99
2018-07-06T04:42:15.062Z,99.99
2018-07-06T04:43:15.059Z,99.99
2018-07-06T04:44:15.107Z,99.99
2018-07-06T04:45:15.061Z,99.99
2018-07-06T04:46:15.061Z,99.99
2018-07-06T04:47:15.052Z,99.99
2018-07-06T04:48:15.046Z,99.99
2018-07-06T04:49:15.044Z,99.99
2018-07-06T04:50:15.043Z,99.99
2018-07-06T04:51:15.041Z,99.99
2018-07-06T04:52:15.030Z,99.99
2018-07-06T04:53:15.034Z,99.99
2018-07-06T04:54:15.028Z,99.99
2018-07-06T04:55:15.028Z,99.99
2018-07-06T04:56:15.019Z,99.99
2018-07-06T04:57:15.021Z,99.99
2018-07-06T04:58:15.017Z,99.99
2018-07-06T04:59:15.025Z,99.99
2018-07-06T05:00:15.000Z,99.99
2018-07-06T05:01:14.997Z,99.99
2018-07-06T05:02:14.995Z,99.99
2018-07-06T05:03:14.990Z,99.99
2018-07-06T05:04:14.991Z,99.99
2018-07-06T05:05:14.987Z,99.99
2018-07-06T05:06:14.989Z,99.99
2018-07-06T05:07:14.981Z,99.99
2018-07-06T05:08:14.980Z,99.99
2018-07-06T05:09:14.982Z,99.99
2018-07-06T05:10:14.966Z,99.99
2018-07-06T05:11:14.964Z,99.99
2018-07-06T05:12:14.965Z,99.99
2018-07-06T05:13:15.148Z,99.99
2018-07-06T05:14:14.953Z,99.99
2018-07-06T05:15:15.057Z,99.99
2018-07-06T05:16:14.949Z,99.99
2018-07-06T05:17:14.953Z,99.99
2018-07-06T05:18:14.950Z,99.99
2018-07-06T05:19:14.979Z,99.99
2018-07-06T05:20:14.937Z,99.99
2018-07-06T05:21:14.935Z,99.99
2018-07-06T05:22:14.929Z,99.99
2018-07-06T05:23:14.927Z,99.99
2018-07-06T05:24:14.930Z,99.99
2018-07-06T05:25:14.920Z,99.99
2018-07-06T05:26:14.947Z,99.99
2018-07-06T05:27:14.912Z,99.99
2018-07-06T05:28:14.917Z,99.99
2018-07-06T05:29:14.905Z,99.99
2018-07-06T05:30:14.917Z,99.99
2018-07-06T05:31:14.900Z,99.99
2018-07-06T05:32:14.898Z,99.99
2018-07-06T05:33:14.898Z,99.99
2018-07-06T05:34:14.890Z,99.99
2018-07-06T05:35:14.891Z,99.99
2018-07-06T05:36:14.883Z,99.99
2018-07-06T05:37:14.881Z,99.99
2018-07-06T05:38:14.885Z,99.99
2018-07-06T05:39:14.876Z,99.99
2018-07-06T05:40:14.870Z,99.99
2018-07-06T05:41:14.868Z,99.99
2018-07-06T05:42:14.874Z,99.99
2018-07-06T05:43:14.869Z,99.99
2018-07-06T05:45:14.860Z,99.99
2018-07-06T05:46:14.850Z,99.99
2018-07-06T05:47:14.846Z,99.99
2018-07-06T05:48:14.852Z,99.99
2018-07-06T05:49:14.839Z,99.99
2018-07-06T05:50:14.839Z,99.99
2018-07-06T05:51:14.833Z,99.99
2018-07-06T05:52:14.830Z,99.99
2018-07-06T05:53:14.825Z,99.99
2018-07-06T05:54:14.822Z,99.99
2018-07-06T05:55:14.829Z,99.99
2018-07-06T05:56:15.022Z,99.99
2018-07-06T05:57:14.824Z,99.99
2018-07-06T05:58:14.808Z,99.99
2018-07-06T05:59:14.810Z,99.99
2018-07-06T06:00:14.805Z,99.99
2018-07-06T06:01:14.800Z,99.99
2018-07-06T06:02:14.798Z,99.99
2018-07-06T06:03:14.792Z,99.99
2018-07-06T06:04:14.804Z,99.99
2018-07-06T06:05:14.785Z,99.99
2018-07-06T06:06:14.787Z,99.99
2018-07-06T06:07:14.780Z,99.99
2018-07-06T06:08:14.779Z,99.99
2018-07-06T06:09:14.783Z,99.99
2018-07-06T06:10:14.779Z,99.99
2018-07-06T06:11:14.766Z,99.99
2018-07-06T06:12:14.802Z,99.99
2018-07-06T06:13:14.760Z,99.99
2018-07-06T06:14:14.766Z,99.99
2018-07-06T06:15:14.760Z,99.99
2018-07-06T06:16:14.760Z,99.99
2018-07-06T06:17:14.751Z,99.99
2018-07-06T06:18:14.744Z,99.99
2018-07-06T06:19:14.751Z,99.99
2018-07-06T06:20:14.741Z,99.99
2018-07-06T06:21:14.735Z,99.99
2018-07-06T06:22:14.731Z,99.99
2018-07-06T06:23:14.733Z,99.99
2018-07-06T06:24:14.725Z,99.99
2018-07-06T06:25:14.727Z,99.99
2018-07-06T06:26:14.726Z,99.99
2018-07-06T06:27:14.725Z,99.99
2018-07-06T06:28:14.717Z,99.99
2018-07-06T06:29:14.713Z,99.99
2018-07-06T06:30:14.705Z,99.99
2018-07-06T06:31:14.706Z,99.99
2018-07-06T06:32:14.704Z,99.99
2018-07-06T06:33:14.732Z,99.99
2018-07-06T06:34:14.694Z,99.99
2018-07-06T06:35:14.695Z,99.99
2018-07-06T06:36:14.691Z,99.99
2018-07-06T06:37:14.685Z,99.99
2018-07-06T06:38:14.687Z,99.99
2018-07-06T06:39:14.685Z,99.99
2018-07-06T06:40:14.674Z,99.99
2018-07-06T06:41:14.684Z,99.99
2018-07-06T06:42:14.674Z,99.99
2018-07-06T06:43:14.672Z,99.99
2018-07-06T06:44:14.665Z,99.99
2018-07-06T06:45:14.667Z,99.99
2018-07-06T06:46:14.749Z,99.99
2018-07-06T06:47:14.658Z,99.99
2018-07-06T06:48:14.653Z,99.99
2018-07-06T06:49:14.666Z,99.99
2018-07-06T06:50:14.647Z,99.99
2018-07-06T06:51:14.651Z,99.99
2018-07-06T06:52:14.638Z,99.99
2018-07-06T06:53:14.635Z,99.99
2018-07-06T06:54:14.693Z,99.99
2018-07-06T06:55:14.642Z,99.99
2018-07-06T06:56:14.719Z,99.99
2018-07-06T06:57:14.624Z,99.99
2018-07-06T06:58:14.624Z,99.99
2018-07-06T06:59:14.624Z,99.99
2018-07-06T07:00:14.622Z,99.99
2018-07-06T07:01:14.612Z,99.99
2018-07-06T07:02:14.613Z,99.99
2018-07-06T07:03:14.613Z,99.99
2018-07-06T07:04:14.616Z,99.99
2018-07-06T07:05:14.605Z,99.99
2018-07-06T07:06:14.598Z,99.99
2018-07-06T07:07:14.599Z,99.99
2018-07-06T07:08:14.590Z,99.99
2018-07-06T07:09:14.593Z,99.99
2018-07-06T07:10:14.586Z,99.99
2018-07-06T07:11:14.581Z,99.99
2018-07-06T07:12:14.582Z,99.99
2018-07-06T07:13:14.575Z,99.99
2018-07-06T07:14:14.661Z,99.99
2018-07-06T07:15:14.576Z,99.99
2018-07-06T07:16:14.567Z,99.99
2018-07-06T07:17:14.564Z,99.99
2018-07-06T07:18:14.560Z,99.99
2018-07-06T07:19:14.567Z,99.99
2018-07-06T07:20:14.558Z,99.99
2018-07-06T07:21:14.555Z,99.99
2018-07-06T07:22:14.549Z,99.99
2018-07-06T07:23:14.550Z,99.99
2018-07-06T07:24:14.545Z,99.99
2018-07-06T07:25:14.545Z,99.99
2018-07-06T07:26:14.543Z,99.99
2018-07-06T07:27:14.543Z,99.99
2018-07-06T07:28:14.531Z,99.99
2018-07-06T07:29:14.534Z,99.99
2018-07-06T07:30:14.636Z,99.99
2018-07-06T07:31:14.522Z,99.99
2018-07-06T07:32:14.532Z,99.99
2018-07-06T07:33:14.527Z,99.99
2018-07-06T07:34:14.511Z,99.99
2018-07-06T07:35:14.515Z,99.99
2018-07-06T07:36:14.505Z,99.99
2018-07-06T07:37:14.512Z,99.99
2018-07-06T07:38:14.500Z,99.99
2018-07-06T07:39:14.498Z,99.99
2018-07-06T07:40:14.502Z,99.99
2018-07-06T07:41:14.493Z,99.99
2018-07-06T07:42:14.493Z,99.99
2018-07-06T07:43:14.485Z,99.99
2018-07-06T07:44:14.483Z,99.99
2018-07-06T07:45:14.480Z,99.99
2018-07-06T07:46:14.491Z,99.99
2018-07-06T07:47:14.483Z,99.99
2018-07-06T07:48:14.478Z,99.99
2018-07-06T07:49:14.473Z,99.99
2018-07-06T07:50:14.469Z,99.99
2018-07-06T07:51:14.467Z,99.99
2018-07-06T07:52:14.464Z,99.99
2018-07-06T07:53:14.458Z,99.99
2018-07-06T07:54:14.455Z,99.99
2018-07-06T07:55:14.451Z,99.99
2018-07-06T07:56:14.448Z,99.99
2018-07-06T07:57:14.446Z,99.99
2018-07-06T07:58:14.442Z,99.99
2018-07-06T07:59:14.441Z,99.99
2018-07-06T08:00:14.437Z,99.99
2018-07-06T08:01:14.564Z,99.99
2018-07-06T08:02:14.436Z,99.99
2018-07-06T08:03:14.429Z,99.99
2018-07-06T08:04:14.426Z,99.99
2018-07-06T08:05:14.428Z,99.99
2018-07-06T08:06:14.422Z,99.99
2018-07-06T08:07:14.419Z,99.99
2018-07-06T08:08:14.420Z,99.99
2018-07-06T08:09:14.418Z,99.99
2018-07-06T08:10:14.410Z,99.99
2018-07-06T08:11:14.411Z,99.99
2018-07-06T08:12:14.405Z,99.99
2018-07-06T08:13:14.403Z,99.99
2018-07-06T08:14:14.402Z,99.99
2018-07-06T08:15:14.408Z,99.73
2018-07-06T08:16:14.397Z,99.99
2018-07-06T08:17:14.403Z,99.40
2018-07-06T08:18:14.400Z,99.99
2018-07-06T08:19:14.384Z,99.49
2018-07-06T08:20:14.381Z,99.99
2018-07-06T08:21:14.380Z,99.21
2018-07-06T08:22:14.384Z,98.24
2018-07-06T08:23:14.376Z,98.72
2018-07-06T08:24:14.375Z,98.14
2018-07-06T08:25:14.380Z,99.30
2018-07-06T08:26:14.369Z,99.88
2018-07-06T08:27:14.371Z,99.40
2018-07-06T08:28:14.360Z,99.78
2018-07-06T08:29:14.357Z,99.99
2018-07-06T08:30:14.367Z,99.99
2018-07-06T08:31:14.353Z,99.49
2018-07-06T08:32:14.354Z,98.44
2018-07-06T08:33:14.348Z,98.92
2018-07-06T08:34:14.345Z,98.63
2018-07-06T08:35:14.343Z,98.05
2018-07-06T08:36:14.344Z,99.49
2018-07-06T08:37:14.341Z,99.30
2018-07-06T08:38:14.337Z,99.59
2018-07-06T08:39:14.333Z,99.40
2018-07-06T08:40:14.330Z,98.72
2018-07-06T08:41:14.326Z,98.72
2018-07-06T08:42:14.325Z,98.72
2018-07-06T08:43:14.322Z,99.21
2018-07-06T08:44:14.328Z,97.86
2018-07-06T08:45:14.320Z,97.38
2018-07-06T08:46:14.314Z,98.63
2018-07-06T08:47:14.323Z,99.21
2018-07-06T08:48:14.313Z,97.57
2018-07-06T08:49:14.306Z,98.34
2018-07-06T08:50:14.305Z,98.92
2018-07-06T08:51:14.317Z,98.44
2018-07-06T08:52:14.311Z,97.96
2018-07-06T08:53:14.297Z,97.67
2018-07-06T08:54:14.295Z,97.57
2018-07-06T08:55:14.297Z,98.24
2018-07-06T08:56:14.295Z,98.34
2018-07-06T08:57:14.296Z,96.61
2018-07-06T08:58:14.299Z,98.72
2018-07-06T08:59:14.284Z,98.54
2018-07-06T09:00:14.288Z,97.57
2018-07-06T09:01:14.281Z,97.57
2018-07-06T09:02:14.274Z,98.44
2018-07-06T09:03:14.275Z,98.72
2018-07-06T09:04:14.337Z,99.40
2018-07-06T09:05:14.284Z,99.54
2018-07-06T09:06:14.279Z,99.54
2018-07-06T09:07:14.264Z,99.74
2018-07-06T09:08:14.266Z,99.99
2018-07-06T09:09:14.419Z,99.99
2018-07-06T09:10:14.262Z,99.64
2018-07-06T09:11:14.300Z,98.29
2018-07-06T09:12:14.253Z,98.00
2018-07-06T09:13:14.255Z,98.15
2018-07-06T09:14:14.247Z,98.34
2018-07-06T09:15:14.253Z,98.10
2018-07-06T09:16:14.250Z,98.68
2018-07-06T09:17:14.247Z,99.40
2018-07-06T09:18:14.246Z,97.19
2018-07-06T09:19:14.240Z,98.63
2018-07-06T09:20:14.309Z,98.82
2018-07-06T09:21:14.241Z,97.47
2018-07-06T09:22:14.236Z,97.57
2018-07-06T09:23:14.233Z,97.47
2018-07-06T09:24:14.294Z,95.94
2018-07-06T09:25:14.271Z,96.51
2018-07-06T09:26:14.410Z,98.00
2018-07-06T09:27:14.224Z,97.72
2018-07-06T09:28:14.222Z,95.69
2018-07-06T09:29:14.226Z,93.96
2018-07-06T09:30:14.218Z,94.73
2018-07-06T09:31:14.225Z,93.48
2018-07-06T09:32:14.214Z,93.76
2018-07-06T09:33:14.214Z,95.50
2018-07-06T09:34:14.215Z,94.73
2018-07-06T09:35:14.208Z,94.73
2018-07-06T09:36:14.210Z,93.66
2018-07-06T09:37:14.208Z,94.82
2018-07-06T09:38:14.211Z,93.28
2018-07-06T09:39:14.202Z,94.54
2018-07-06T09:40:14.208Z,95.69
2018-07-06T09:41:14.206Z,96.17
2018-07-06T09:42:14.205Z,94.34
2018-07-06T09:43:14.195Z,93.86
2018-07-06T09:44:14.202Z,94.73
2018-07-06T09:45:14.198Z,93.81
2018-07-06T09:46:14.195Z,93.76
2018-07-06T09:47:14.200Z,94.20
2018-07-06T09:48:14.190Z,93.23
2018-07-06T09:49:14.190Z,92.56
2018-07-06T09:50:14.188Z,94.48
2018-07-06T09:51:14.197Z,93.66
2018-07-06T09:52:14.181Z,92.70
2018-07-06T09:53:14.193Z,91.64
2018-07-06T09:54:14.180Z,92.89
2018-07-06T09:55:14.178Z,92.80
2018-07-06T09:56:14.181Z,91.93
2018-07-06T09:57:14.183Z,91.35
2018-07-06T09:58:14.182Z,92.32
2018-07-06T09:59:14.171Z,91.83
2018-07-06T10:00:14.169Z,91.64
2018-07-06T10:01:14.171Z,92.12
2018-07-06T10:02:14.172Z,91.64
2018-07-06T10:03:14.175Z,91.64
2018-07-06T10:04:14.219Z,92.12
2018-07-06T10:05:14.172Z,92.02
2018-07-06T10:06:14.169Z,91.78
2018-07-06T10:07:14.167Z,93.33
2018-07-06T10:08:14.163Z,92.46
2018-07-06T10:09:14.164Z,92.36
2018-07-06T10:10:14.214Z,92.75
2018-07-06T10:11:14.167Z,93.52
2018-07-06T10:12:14.163Z,94.48
2018-07-06T10:13:14.163Z,93.23
2018-07-06T10:14:14.166Z,93.23
2018-07-06T10:15:14.155Z,93.57
2018-07-06T10:16:14.209Z,94.15
2018-07-06T10:17:14.159Z,93.28
2018-07-06T10:18:14.154Z,92.80
2018-07-06T10:19:14.150Z,92.32
2018-07-06T10:20:14.148Z,91.06
2018-07-06T10:21:14.146Z,91.30
2018-07-06T10:22:14.151Z,90.29
2018-07-06T10:23:14.151Z,89.95
2018-07-06T10:24:14.142Z,89.56
2018-07-06T10:25:14.143Z,89.65
2018-07-06T10:26:14.144Z,88.31
2018-07-06T10:27:14.182Z,88.11
2018-07-06T10:28:14.146Z,89.37
2018-07-06T10:29:14.149Z,87.63
2018-07-06T10:30:14.141Z,86.96
2018-07-06T10:31:14.136Z,87.00
2018-07-06T10:32:14.135Z,87.38
2018-07-06T10:33:14.292Z,87.19
2018-07-06T10:34:14.173Z,87.38
2018-07-06T10:35:14.139Z,86.80
2018-07-06T10:36:14.134Z,85.94
2018-07-06T10:37:14.131Z,85.84
2018-07-06T10:38:14.139Z,86.13
2018-07-06T10:39:14.132Z,86.61
2018-07-06T10:40:14.183Z,86.42
2018-07-06T10:41:14.137Z,85.84
2018-07-06T10:42:14.131Z,86.03
2018-07-06T10:43:14.129Z,85.26
2018-07-06T10:44:14.141Z,84.97
2018-07-06T10:45:14.129Z,84.97
2018-07-06T10:46:14.127Z,84.78
2018-07-06T10:47:14.127Z,84.53
2018-07-06T10:48:14.131Z,83.81
2018-07-06T10:49:14.133Z,85.11
2018-07-06T10:50:14.128Z,85.88
2018-07-06T10:51:14.126Z,85.69
2018-07-06T10:52:14.127Z,85.98
2018-07-06T10:53:14.127Z,85.88
2018-07-06T10:54:14.128Z,85.21
2018-07-06T10:55:14.130Z,84.72
2018-07-06T10:56:14.133Z,85.49
2018-07-06T10:57:14.125Z,84.63
2018-07-06T10:58:14.124Z,85.98
2018-07-06T10:59:14.143Z,85.21
2018-07-06T11:00:14.131Z,85.49
2018-07-06T11:01:14.129Z,85.01
2018-07-06T11:02:14.130Z,83.47
2018-07-06T11:03:14.131Z,85.30
2018-07-06T11:04:14.137Z,85.88
2018-07-06T11:05:14.122Z,85.40
2018-07-06T11:06:14.121Z,84.14
2018-07-06T11:07:14.123Z,85.78
2018-07-06T11:08:14.122Z,85.69
2018-07-06T11:09:14.125Z,85.94
2018-07-06T11:10:14.130Z,85.06
2018-07-06T11:11:14.125Z,86.52
2018-07-06T11:12:14.129Z,87.67
2018-07-06T11:13:14.121Z,88.45
2018-07-06T11:14:14.124Z,87.19
2018-07-06T11:15:14.131Z,86.32
2018-07-06T11:16:14.124Z,87.19
2018-07-06T11:17:14.117Z,88.64
2018-07-06T11:18:14.118Z,88.21
2018-07-06T11:19:14.123Z,88.21
2018-07-06T11:20:14.124Z,88.40
2018-07-06T11:21:14.126Z,89.47
2018-07-06T11:22:14.119Z,88.69
2018-07-06T11:23:14.118Z,90.53
2018-07-06T11:24:14.117Z,90.53
2018-07-06T11:25:14.126Z,90.81
2018-07-06T11:26:14.129Z,89.56
2018-07-06T11:27:14.119Z,89.17
2018-07-06T11:28:14.116Z,89.90
2018-07-06T11:29:14.113Z,90.96
2018-07-06T11:30:14.113Z,89.71
2018-07-06T11:31:14.117Z,90.48
2018-07-06T11:32:14.209Z,91.83
2018-07-06T11:33:14.111Z,91.06
2018-07-06T11:34:14.131Z,91.35
2018-07-06T11:35:14.109Z,91.25
2018-07-06T11:36:14.109Z,89.81
2018-07-06T11:37:14.116Z,89.51
2018-07-06T11:38:14.313Z,90.05
2018-07-06T11:39:14.105Z,90.23
2018-07-06T11:40:14.102Z,90.53
2018-07-06T11:41:14.110Z,91.30
2018-07-06T11:42:14.112Z,89.95
2018-07-06T11:43:14.120Z,89.75
2018-07-06T11:44:14.101Z,88.69
2018-07-06T11:45:14.117Z,88.89
2018-07-06T11:46:14.102Z,88.69
2018-07-06T11:47:14.110Z,89.17
2018-07-06T11:48:14.106Z,89.47
2018-07-06T11:49:14.099Z,89.95
2018-07-06T11:50:14.099Z,90.23
2018-07-06T11:51:14.103Z,89.75
2018-07-06T11:52:14.098Z,91.01
2018-07-06T11:53:14.100Z,92.16
2018-07-06T11:54:14.101Z,90.43
2018-07-06T11:55:14.098Z,90.33
2018-07-06T11:56:14.094Z,90.05
2018-07-06T11:57:14.112Z,90.91
2018-07-06T11:58:14.130Z,91.30
2018-07-06T11:59:14.092Z,91.16
2018-07-06T12:00:14.090Z,89.65
2018-07-06T12:01:14.099Z,89.27
2018-07-06T12:02:14.108Z,89.75
2018-07-06T12:03:14.101Z,89.75
2018-07-06T12:04:14.202Z,88.50
2018-07-06T12:05:14.098Z,88.40
2018-07-06T12:06:14.094Z,89.47
2018-07-06T12:07:14.105Z,88.11
2018-07-06T12:08:14.083Z,88.11
2018-07-06T12:09:14.081Z,88.79
2018-07-06T12:10:14.087Z,88.79
2018-07-06T12:11:14.081Z,88.79
2018-07-06T12:12:14.080Z,89.37
2018-07-06T12:13:14.084Z,88.59
2018-07-06T12:14:14.089Z,88.40
2018-07-06T12:15:14.080Z,88.50
2018-07-06T12:16:14.084Z,88.89
2018-07-06T12:17:14.083Z,88.89
2018-07-06T12:18:14.083Z,88.79
2018-07-06T12:19:14.084Z,89.17
2018-07-06T12:20:14.077Z,89.37
2018-07-06T12:21:14.125Z,87.92
2018-07-06T12:22:14.076Z,88.89
2018-07-06T12:23:14.076Z,88.50
2018-07-06T12:24:14.082Z,88.45
2018-07-06T12:25:14.074Z,88.75
2018-07-06T12:26:14.074Z,89.23
2018-07-06T12:27:14.074Z,89.42
2018-07-06T12:28:14.081Z,89.71
2018-07-06T12:29:14.101Z,89.32
2018-07-06T12:30:14.074Z,89.51
2018-07-06T12:31:14.076Z,90.00
2018-07-06T12:32:14.071Z,89.90
2018-07-06T12:33:14.070Z,89.81
2018-07-06T12:34:14.069Z,89.61
2018-07-06T12:35:14.066Z,90.19
2018-07-06T12:36:14.069Z,91.44
2018-07-06T12:37:14.063Z,93.08
2018-07-06T12:38:14.068Z,94.05
2018-07-06T12:39:14.062Z,95.11
2018-07-06T12:40:14.074Z,95.88
2018-07-06T12:41:14.097Z,97.67
2018-07-06T12:42:14.060Z,98.25
2018-07-06T12:43:14.066Z,97.77
2018-07-06T12:44:14.069Z,97.38
2018-07-06T12:45:14.070Z,95.64
2018-07-06T12:46:14.064Z,93.71
2018-07-06T12:47:14.112Z,94.39
2018-07-06T12:48:14.053Z,94.78
2018-07-06T12:49:14.053Z,95.16
2018-07-06T12:50:14.050Z,94.39
2018-07-06T12:51:14.050Z,95.26
2018-07-06T12:52:14.053Z,95.54
2018-07-06T12:53:14.052Z,95.26